Time;durP1;ratioP1;P1;durP2;ratioP2;P2;SDS_P1;SDS_P2;PMS_P1;PMS_P2;Temp;Humidity;BMP_temperature;BMP_pressure;BME280_temperature;BME280_humidity;BME280_pressure;Samples;Min_cycle;Max_cycle;Signal;HPM_P1;HPM_P2
2022/01/14 00:02:02;;;;;;;35.50;17.08;;;3.90;99.90;;;;;;5049669;28;19951;-62
2022/01/14 00:04:28;;;;;;;35.97;15.77;;;3.90;99.90;;;;;;5058026;28;20131;-62
2022/01/14 00:06:54;;;;;;;40.40;18.63;;;3.90;99.90;;;;;;5055929;28;20107;-62
2022/01/14 00:09:20;;;;;;;36.58;18.70;;;3.90;99.90;;;;;;5053595;28;20032;-62
2022/01/14 00:11:51;;;;;;;35.88;18.63;;;3.80;99.90;;;;;;5058291;28;20443;-62
2022/01/14 00:16:43;;;;;;;48.60;20.02;;;3.90;99.90;;;;;;5059469;28;20631;-62
2022/01/14 00:19:08;;;;;;;36.00;17.85;;;3.90;99.90;;;;;;5051635;28;20028;-61
2022/01/14 00:21:36;;;;;;;36.65;18.15;;;3.80;99.90;;;;;;5058713;28;20701;-62
2022/01/14 00:34:35;;;;;;;34.65;16.95;;;3.80;99.90;;;;;;5047649;28;20437;-62
2022/01/14 00:37:00;;;;;;;44.58;18.10;;;3.90;99.90;;;;;;5055524;28;20447;-61
2022/01/14 00:39:26;;;;;;;35.35;17.88;;;3.80;99.90;;;;;;5047715;28;20021;-62
2022/01/14 00:41:52;;;;;;;39.22;19.45;;;3.80;99.90;;;;;;5055932;28;20048;-61
2022/01/14 00:44:19;;;;;;;47.10;18.95;;;3.80;99.90;;;;;;5052047;28;20226;-62
2022/01/14 00:46:46;;;;;;;41.45;19.33;;;3.80;99.90;;;;;;5056653;28;20043;-61
2022/01/14 00:49:13;;;;;;;40.63;17.73;;;3.80;99.90;;;;;;5046780;28;20378;-62
2022/01/14 00:51:39;;;;;;;33.63;17.35;;;3.80;99.90;;;;;;5060443;28;20562;-62
2022/01/14 00:54:05;;;;;;;42.67;17.40;;;3.80;99.90;;;;;;5055341;28;20334;-62
2022/01/14 00:59:16;;;;;;;34.28;18.90;;;3.80;99.90;;;;;;5054391;28;20082;-60
2022/01/14 01:01:58;;;;;;;36.75;18.10;;;3.80;99.90;;;;;;5044612;28;20048;-62
2022/01/14 01:04:33;;;;;;;44.80;17.70;;;3.80;99.90;;;;;;5046958;28;20028;-61
2022/01/14 01:07:00;;;;;;;40.28;16.75;;;3.80;99.90;;;;;;5050222;28;20578;-62
2022/01/14 01:09:26;;;;;;;37.05;17.42;;;3.80;99.90;;;;;;5046124;28;20171;-62
2022/01/14 01:12:27;;;;;;;39.53;18.33;;;3.90;99.90;;;;;;5051957;28;20478;-61
2022/01/14 01:17:12;;;;;;;39.55;17.35;;;3.90;99.90;;;;;;5045900;28;20029;-62
2022/01/14 01:19:38;;;;;;;36.47;18.05;;;3.80;99.90;;;;;;5052009;28;20595;-62
2022/01/14 01:22:04;;;;;;;32.50;16.67;;;3.90;99.90;;;;;;5052703;28;20575;-62
2022/01/14 01:24:30;;;;;;;35.17;16.63;;;3.80;99.90;;;;;;5049256;28;20021;-62
2022/01/14 01:26:56;;;;;;;41.05;18.83;;;3.90;99.90;;;;;;5051261;28;20024;-61
2022/01/14 01:31:54;;;;;;;34.42;16.45;;;3.80;99.90;;;;;;5053258;28;20029;-61
2022/01/14 01:34:25;;;;;;;36.72;17.83;;;3.90;99.90;;;;;;5053741;28;20029;-61
2022/01/14 01:36:54;;;;;;;44.38;20.77;;;3.90;99.90;;;;;;5052539;28;20102;-61
2022/01/14 01:39:24;;;;;;;38.25;17.23;;;3.80;99.90;;;;;;5053533;28;20458;-61
2022/01/14 01:41:53;;;;;;;39.80;18.20;;;3.80;99.90;;;;;;5051342;28;20299;-62
2022/01/14 01:44:21;;;;;;;37.38;17.85;;;3.80;99.90;;;;;;5047551;28;20482;-62
2022/01/14 01:46:48;;;;;;;36.33;18.40;;;3.90;99.90;;;;;;5053571;28;20445;-61
2022/01/14 01:49:18;;;;;;;36.38;17.25;;;3.90;99.90;;;;;;5053460;28;20341;-61
2022/01/14 01:51:46;;;;;;;37.53;19.10;;;3.90;99.90;;;;;;5045686;28;20029;-61
2022/01/14 01:54:13;;;;;;;39.70;17.33;;;3.90;99.90;;;;;;5044661;28;20086;-61
2022/01/14 01:56:39;;;;;;;30.67;15.23;;;3.90;99.90;;;;;;5046729;28;20036;-61
2022/01/14 01:59:05;;;;;;;35.03;17.05;;;3.90;99.90;;;;;;5053757;28;20441;-62
2022/01/14 02:01:31;;;;;;;;;;;3.80;99.90;;;;;;5053355;28;20580;-62
2022/01/14 02:03:56;;;;;;;30.48;16.13;;;3.90;99.90;;;;;;5052376;28;19912;-61
2022/01/14 02:06:23;;;;;;;41.47;18.83;;;3.80;99.90;;;;;;5048360;28;20576;-63
2022/01/14 02:08:49;;;;;;;34.67;16.63;;;3.90;99.90;;;;;;5053312;28;20116;-61
2022/01/14 02:11:16;;;;;;;43.90;18.50;;;3.90;99.90;;;;;;5052080;28;20429;-62
2022/01/14 02:13:42;;;;;;;45.80;20.42;;;3.80;99.90;;;;;;5051611;28;20032;-62
2022/01/14 02:26:49;;;;;;;37.63;17.38;;;3.80;99.90;;;;;;5056396;28;20052;-62
2022/01/14 02:29:14;;;;;;;41.30;18.65;;;3.80;99.90;;;;;;5051663;28;20110;-61
2022/01/14 02:31:40;;;;;;;32.17;17.77;;;3.80;99.90;;;;;;5053118;28;20162;-62
2022/01/14 02:34:06;;;;;;;33.55;17.70;;;3.80;99.90;;;;;;5047851;28;20494;-62
2022/01/14 02:36:32;;;;;;;41.83;18.02;;;3.80;99.90;;;;;;5059156;28;20091;-62
2022/01/14 02:38:59;;;;;;;42.10;18.65;;;3.80;99.90;;;;;;5046703;28;20029;-61
2022/01/14 02:41:25;;;;;;;37.97;16.25;;;3.80;99.90;;;;;;5049894;28;20204;-62
2022/01/14 02:43:50;;;;;;;38.08;17.30;;;3.80;99.90;;;;;;5045313;28;20031;-62
2022/01/14 02:46:16;;;;;;;38.95;18.05;;;3.80;99.90;;;;;;5057228;28;20025;-62
2022/01/14 02:48:42;;;;;;;38.58;18.02;;;3.80;99.90;;;;;;5048895;28;20029;-62
2022/01/14 02:51:12;;;;;;;37.05;18.02;;;3.80;99.90;;;;;;5045912;28;20446;-62
2022/01/14 02:56:15;;;;;;;35.88;17.90;;;3.80;99.90;;;;;;5043910;28;20613;-62
2022/01/14 02:58:42;;;;;;;35.70;16.95;;;3.80;99.90;;;;;;5044177;28;20024;-62
2022/01/14 03:01:20;;;;;;;37.95;19.55;;;3.80;99.90;;;;;;5047124;28;20072;-62
2022/01/14 03:03:47;;;;;;;38.83;17.00;;;3.80;99.90;;;;;;5048320;28;20167;-62
2022/01/14 03:06:14;;;;;;;36.30;17.83;;;3.80;99.90;;;;;;5043988;28;20032;-61
2022/01/14 03:08:41;;;;;;;35.78;18.67;;;3.90;99.90;;;;;;5049960;28;20025;-61
2022/01/14 03:11:10;;;;;;;33.40;17.17;;;3.80;99.90;;;;;;5045241;28;20032;-61
2022/01/14 03:13:37;;;;;;;40.05;20.10;;;3.90;99.90;;;;;;5045365;28;20029;-61
2022/01/14 03:16:03;;;;;;;39.05;19.02;;;3.90;99.90;;;;;;5043960;28;20033;-62
2022/01/14 03:18:34;;;;;;;;;;;3.90;99.90;;;;;;5045903;28;20284;-62
2022/01/14 03:21:10;;;;;;;41.40;18.63;;;3.90;99.90;;;;;;5046989;28;19913;-62
2022/01/14 03:23:44;;;;;;;35.50;16.65;;;3.90;99.90;;;;;;5043699;28;20037;-62
2022/01/14 03:26:09;;;;;;;35.38;16.42;;;3.90;99.90;;;;;;5044836;28;20107;-61
2022/01/14 03:28:35;;;;;;;41.90;17.08;;;3.90;99.90;;;;;;5047201;28;20125;-62
2022/01/14 03:31:00;;;;;;;36.67;18.08;;;3.90;99.90;;;;;;5053584;28;20029;-63
2022/01/14 03:33:26;;;;;;;29.80;15.10;;;3.90;99.90;;;;;;5050020;28;20555;-61
2022/01/14 03:35:51;;;;;;;37.00;17.08;;;3.90;99.90;;;;;;5046695;28;20025;-61
2022/01/14 03:38:18;;;;;;;33.92;16.95;;;3.90;99.90;;;;;;5045919;28;20032;-62
2022/01/14 03:40:43;;;;;;;;;;;3.90;99.90;;;;;;5061679;28;20551;-62
2022/01/14 03:43:10;;;;;;;33.42;15.25;;;3.90;99.90;;;;;;5055672;28;20319;-62
2022/01/14 03:45:37;;;;;;;36.42;17.27;;;3.90;99.90;;;;;;5055985;28;20606;-61
2022/01/14 03:48:03;;;;;;;31.50;14.95;;;3.90;99.90;;;;;;5057240;28;20037;-62
2022/01/14 03:50:29;;;;;;;30.17;15.73;;;3.90;99.90;;;;;;5062845;28;20028;-61
2022/01/14 03:52:54;;;;;;;32.15;15.45;;;3.90;99.90;;;;;;5045515;28;20536;-61
2022/01/14 03:55:20;;;;;;;36.38;17.55;;;3.90;99.90;;;;;;5059785;28;20032;-61
2022/01/14 03:57:46;;;;;;;39.60;17.38;;;4.00;99.90;;;;;;5052713;28;20497;-61
2022/01/14 04:00:12;;;;;;;31.13;16.15;;;4.00;99.90;;;;;;5055786;28;20037;-61
2022/01/14 04:02:37;;;;;;;;;;;3.90;99.90;;;;;;5057755;28;20024;-62
2022/01/14 04:05:03;;;;;;;31.33;14.82;;;4.00;99.90;;;;;;5050838;28;20424;-61
2022/01/14 04:07:29;;;;;;;31.98;16.50;;;4.00;99.90;;;;;;5054698;28;20102;-62
2022/01/14 04:09:54;;;;;;;34.15;14.70;;;4.00;99.90;;;;;;5056730;28;20408;-61
2022/01/14 04:12:32;;;;;;;31.45;15.40;;;4.00;99.90;;;;;;5054035;28;20166;-61
2022/01/14 04:17:23;;;;;;;36.15;16.15;;;4.00;99.90;;;;;;5054630;28;20033;-62
2022/01/14 04:19:49;;;;;;;34.00;15.13;;;4.00;99.90;;;;;;5053809;28;20147;-61
2022/01/14 04:22:14;;;;;;;33.03;15.38;;;4.00;99.90;;;;;;5055347;28;20116;-61
2022/01/14 04:24:40;;;;;;;28.50;15.18;;;4.00;99.90;;;;;;5053307;28;20041;-62
2022/01/14 04:27:05;;;;;;;30.30;14.88;;;4.00;99.90;;;;;;5054366;28;20033;-62
2022/01/14 04:29:32;;;;;;;29.75;14.52;;;4.00;99.90;;;;;;5047636;28;21030;-62
2022/01/14 04:31:58;;;;;;;30.75;14.90;;;4.10;99.90;;;;;;5066742;22;20169;-60
2022/01/14 04:34:24;;;;;;;;;;;4.10;99.90;;;;;;5066549;28;20028;-59
2022/01/14 04:36:49;;;;;;;24.98;13.07;;;4.10;99.90;;;;;;5066312;28;19920;-59
2022/01/14 04:39:15;;;;;;;30.33;15.45;;;4.10;99.90;;;;;;5067403;28;20024;-60
2022/01/14 04:41:40;;;;;;;37.85;17.45;;;4.00;99.90;;;;;;5064952;28;20025;-59
2022/01/14 04:44:06;;;;;;;30.98;14.63;;;4.10;99.90;;;;;;5067371;28;20149;-60
2022/01/14 04:49:06;;;;;;;37.78;16.65;;;4.10;99.90;;;;;;5065473;28;20033;-59
2022/01/14 04:51:32;;;;;;;31.75;16.40;;;4.10;99.90;;;;;;5065690;28;20510;-59
2022/01/14 04:53:58;;;;;;;32.88;17.10;;;4.10;99.90;;;;;;5066486;28;20028;-59
2022/01/14 04:56:24;;;;;;;33.63;18.08;;;4.10;99.90;;;;;;5065359;28;20147;-60
2022/01/14 04:58:49;;;;;;;31.95;15.85;;;4.10;99.90;;;;;;5066282;28;20024;-59
2022/01/14 05:01:15;;;;;;;28.52;15.50;;;4.00;99.90;;;;;;5063250;28;20020;-59
2022/01/14 05:03:40;;;;;;;34.03;15.98;;;4.00;99.90;;;;;;5065607;28;20350;-57
2022/01/14 05:06:07;;;;;;;35.40;17.48;;;4.00;99.90;;;;;;5064243;28;20103;-57
2022/01/14 05:08:38;;;;;;;34.78;18.15;;;4.00;99.90;;;;;;5065236;28;20035;-58
2022/01/14 05:13:43;;;;;;;36.63;17.13;;;4.00;99.90;;;;;;5064702;28;20033;-58
2022/01/14 05:16:08;;;;;;;30.58;14.45;;;4.00;99.90;;;;;;5065469;28;20083;-59
2022/01/14 05:18:37;;;;;;;31.08;16.02;;;4.00;99.90;;;;;;5065456;28;20025;-59
2022/01/14 05:21:04;;;;;;;35.63;15.38;;;4.00;99.90;;;;;;5062843;28;20452;-59
2022/01/14 05:23:29;;;;;;;32.97;16.40;;;4.00;99.90;;;;;;5065686;28;20059;-58
2022/01/14 05:25:55;;;;;;;34.05;18.25;;;4.00;99.90;;;;;;5066565;28;20493;-59
2022/01/14 05:28:20;;;;;;;32.63;16.10;;;4.10;99.90;;;;;;5066091;28;20111;-59
2022/01/14 05:30:46;;;;;;;;;;;4.00;99.90;;;;;;5062568;28;20033;-63
2022/01/14 05:33:12;;;;;;;31.73;15.52;;;4.00;99.90;;;;;;5064511;28;19912;-57
2022/01/14 05:35:37;;;;;;;;;;;4.00;99.90;;;;;;5065115;28;20477;-56
2022/01/14 05:38:03;;;;;;;28.75;15.45;;;4.10;99.90;;;;;;5063655;28;20387;-57
2022/01/14 05:40:29;;;;;;;31.80;16.70;;;4.10;99.90;;;;;;5063165;28;20622;-59
2022/01/14 05:42:55;;;;;;;;;;;4.10;99.90;;;;;;5065928;28;20020;-59
2022/01/14 05:45:21;;;;;;;36.83;17.73;;;4.10;99.90;;;;;;5064503;28;19935;-58
2022/01/14 05:47:46;;;;;;;38.38;17.70;;;4.10;99.90;;;;;;5065423;28;20210;-58
2022/01/14 05:50:17;;;;;;;32.80;15.65;;;4.10;99.90;;;;;;5063727;28;20024;-60
2022/01/14 05:52:43;;;;;;;34.65;16.17;;;4.10;99.90;;;;;;5063206;28;20035;-57
2022/01/14 05:55:11;;;;;;;29.77;15.82;;;4.10;99.90;;;;;;5062874;28;20043;-58
2022/01/14 05:57:38;;;;;;;34.97;16.52;;;4.20;99.90;;;;;;5061515;28;20075;-59
2022/01/14 06:00:07;;;;;;;36.58;15.98;;;4.20;99.90;;;;;;5061688;28;20402;-59
2022/01/14 06:02:32;;;;;;;31.17;17.00;;;4.30;99.90;;;;;;5063409;28;20185;-58
2022/01/14 06:04:58;;;;;;;31.05;16.95;;;4.20;99.90;;;;;;5060177;28;20119;-59
2022/01/14 06:07:23;;;;;;;32.65;16.92;;;4.30;99.90;;;;;;5063937;28;20025;-57
2022/01/14 06:09:49;;;;;;;31.98;15.60;;;4.30;99.90;;;;;;5064016;28;20080;-58
2022/01/14 06:12:14;;;;;;;34.20;16.92;;;4.30;99.90;;;;;;5063629;28;20340;-59
2022/01/14 06:14:40;;;;;;;32.08;15.77;;;4.30;99.90;;;;;;5064608;28;20051;-57
2022/01/14 06:17:05;;;;;;;39.08;19.65;;;4.30;99.90;;;;;;5064777;28;20043;-59
2022/01/14 06:19:31;;;;;;;30.95;15.70;;;4.30;99.90;;;;;;5063092;28;20032;-57
2022/01/14 06:21:57;;;;;;;32.88;17.00;;;4.30;99.90;;;;;;5064567;28;20037;-59
2022/01/14 06:24:23;;;;;;;32.15;16.08;;;4.30;99.90;;;;;;5063953;28;20043;-57
2022/01/14 06:26:48;;;;;;;33.45;17.17;;;4.30;99.90;;;;;;5062635;28;20033;-57
2022/01/14 06:29:14;;;;;;;33.60;16.08;;;4.30;99.90;;;;;;5061460;28;20032;-59
2022/01/14 06:31:39;;;;;;;36.15;17.98;;;4.30;99.90;;;;;;5062893;28;20116;-58
2022/01/14 06:34:05;;;;;;;30.67;15.13;;;4.30;99.90;;;;;;5062992;28;20033;-56
2022/01/14 06:36:30;;;;;;;38.35;18.50;;;4.30;99.90;;;;;;5063379;28;20105;-57
2022/01/14 06:38:56;;;;;;;35.50;17.63;;;4.30;99.90;;;;;;5057808;28;20033;-59
2022/01/14 06:41:21;;;;;;;32.47;15.95;;;4.40;99.90;;;;;;5059877;28;20261;-58
2022/01/14 06:43:47;;;;;;;32.88;16.10;;;4.40;99.90;;;;;;5057838;28;20032;-59
2022/01/14 06:46:13;;;;;;;32.10;16.67;;;4.60;99.90;;;;;;5059058;28;20074;-59
2022/01/14 06:48:38;;;;;;;29.05;17.40;;;4.60;99.90;;;;;;5062798;28;20056;-59
2022/01/14 06:51:04;;;;;;;27.25;14.77;;;4.60;99.90;;;;;;5063308;28;20024;-59
2022/01/14 06:53:29;;;;;;;35.63;16.95;;;4.50;99.90;;;;;;5065181;28;20358;-57
2022/01/14 06:55:55;;;;;;;33.97;18.08;;;4.50;99.90;;;;;;5063887;28;20055;-59
2022/01/14 06:58:21;;;;;;;29.48;16.25;;;4.50;99.90;;;;;;5063690;28;20567;-58
2022/01/14 07:00:46;;;;;;;34.92;17.70;;;4.40;99.90;;;;;;5062575;28;20597;-59
2022/01/14 07:03:12;;;;;;;35.35;17.00;;;4.40;99.90;;;;;;5064069;28;20016;-58
2022/01/14 07:05:37;;;;;;;33.60;17.38;;;4.40;99.90;;;;;;5063923;28;20037;-59
2022/01/14 07:08:03;;;;;;;32.03;16.02;;;4.40;99.90;;;;;;5063651;28;20043;-58
2022/01/14 07:10:29;;;;;;;31.65;16.80;;;4.40;99.90;;;;;;5064578;28;20039;-58
2022/01/14 07:12:54;;;;;;;31.55;16.10;;;4.40;99.90;;;;;;5065238;28;20115;-57
2022/01/14 07:15:21;;;;;;;31.88;17.30;;;4.30;99.90;;;;;;5065915;28;20444;-59
2022/01/14 07:17:47;;;;;;;37.45;17.23;;;4.40;99.90;;;;;;5068137;28;20033;-60
2022/01/14 07:20:15;;;;;;;38.00;15.63;;;4.40;99.90;;;;;;5067658;28;20074;-59
2022/01/14 07:22:42;;;;;;;44.72;21.52;;;4.40;99.90;;;;;;5068557;28;20024;-60
2022/01/14 07:25:09;;;;;;;32.78;15.63;;;4.40;99.90;;;;;;5068107;28;20033;-59
2022/01/14 07:27:35;;;;;;;32.65;17.10;;;4.40;99.90;;;;;;5061266;28;20509;-60
2022/01/14 07:30:00;;;;;;;34.50;16.20;;;4.40;99.90;;;;;;5060365;28;20041;-59
2022/01/14 07:32:26;;;;;;;34.63;14.93;;;4.40;99.90;;;;;;5066520;28;20486;-60
2022/01/14 07:34:52;;;;;;;33.80;17.23;;;4.40;99.90;;;;;;5066058;28;20473;-58
2022/01/14 07:37:18;;;;;;;34.00;15.90;;;4.40;99.90;;;;;;5066588;28;20037;-60
2022/01/14 07:39:44;;;;;;;;;;;4.40;99.90;;;;;;5067211;28;20028;-60
2022/01/14 07:42:10;;;;;;;32.22;14.68;;;4.40;99.90;;;;;;5066149;28;19920;-57
2022/01/14 07:44:36;;;;;;;;;;;4.40;99.90;;;;;;5067778;28;20111;-59
2022/01/14 07:47:02;;;;;;;32.53;15.88;;;4.40;99.90;;;;;;5065284;28;20102;-60
2022/01/14 07:49:28;;;;;;;34.03;14.95;;;4.40;99.90;;;;;;5066639;28;20074;-60
2022/01/14 07:51:53;;;;;;;31.50;15.57;;;4.40;99.90;;;;;;5066464;28;20495;-58
2022/01/14 07:54:19;;;;;;;28.48;14.82;;;4.40;99.90;;;;;;5065676;28;20029;-59
2022/01/14 07:56:48;;;;;;;30.60;15.48;;;4.40;99.90;;;;;;5066937;28;20029;-59
2022/01/14 07:59:16;;;;;;;29.65;14.95;;;4.40;99.90;;;;;;5065223;28;20032;-59
2022/01/14 08:01:43;;;;;;;33.45;15.35;;;4.50;99.90;;;;;;5065970;28;20028;-58
2022/01/14 08:04:10;;;;;;;32.13;15.77;;;4.50;99.90;;;;;;5064978;28;20080;-60
2022/01/14 08:06:39;;;;;;;37.17;15.45;;;4.50;99.90;;;;;;5065015;28;20052;-59
2022/01/14 08:09:04;;;;;;;26.77;15.65;;;4.50;99.90;;;;;;5064177;28;20060;-58
2022/01/14 08:11:30;;;;;;;33.30;16.08;;;4.50;99.90;;;;;;5067106;28;20056;-59
2022/01/14 08:13:56;;;;;;;30.50;14.82;;;4.50;99.90;;;;;;5066058;28;20550;-60
2022/01/14 08:16:22;;;;;;;32.33;16.70;;;4.50;99.90;;;;;;5063627;28;20558;-59
2022/01/14 08:18:47;;;;;;;30.02;16.88;;;4.50;99.90;;;;;;5066990;28;20028;-59
2022/01/14 08:21:15;;;;;;;32.13;17.52;;;4.50;99.90;;;;;;5065253;28;20024;-58
2022/01/14 08:23:40;;;;;;;32.30;15.38;;;4.50;99.90;;;;;;5064553;28;20033;-59
2022/01/14 08:26:06;;;;;;;31.27;16.10;;;4.50;99.90;;;;;;5064582;28;20031;-59
2022/01/14 08:28:31;;;;;;;28.95;15.73;;;4.60;99.90;;;;;;5065710;28;20078;-58
2022/01/14 08:30:57;;;;;;;35.03;17.65;;;4.60;99.90;;;;;;5062639;28;20070;-59
2022/01/14 08:33:23;;;;;;;31.77;15.98;;;4.60;99.90;;;;;;5065853;28;20031;-60
2022/01/14 08:35:48;;;;;;;32.88;17.30;;;4.60;99.90;;;;;;5064262;28;20032;-59
2022/01/14 08:38:14;;;;;;;35.95;15.80;;;4.60;99.90;;;;;;5064243;28;20043;-59
2022/01/14 08:40:40;;;;;;;40.95;17.73;;;4.60;99.90;;;;;;5065897;28;20077;-60
2022/01/14 08:43:06;;;;;;;34.75;16.92;;;4.60;99.90;;;;;;5063410;28;20435;-59
2022/01/14 08:45:32;;;;;;;30.15;15.15;;;4.60;99.90;;;;;;5065304;28;20051;-57
2022/01/14 08:47:58;;;;;;;29.75;16.75;;;4.60;99.90;;;;;;5066881;28;20020;-57
2022/01/14 08:50:27;;;;;;;27.30;15.30;;;4.70;99.90;;;;;;5062432;28;20076;-59
2022/01/14 08:52:53;;;;;;;39.28;17.60;;;4.70;99.90;;;;;;5060425;28;20077;-59
2022/01/14 08:55:20;;;;;;;33.65;18.50;;;4.70;99.90;;;;;;5065268;28;20021;-59
2022/01/14 08:57:46;;;;;;;33.75;17.27;;;4.70;99.90;;;;;;5066097;28;20040;-59
2022/01/14 09:00:13;;;;;;;34.78;17.20;;;4.80;99.90;;;;;;5062251;28;20400;-58
2022/01/14 09:02:38;;;;;;;39.92;20.00;;;4.80;99.90;;;;;;5066128;28;20028;-60
2022/01/14 09:05:05;;;;;;;38.38;17.02;;;4.80;99.90;;;;;;5062021;28;20699;-59
2022/01/14 09:07:31;;;;;;;36.92;17.35;;;4.80;99.90;;;;;;5065623;28;20517;-60
2022/01/14 09:09:56;;;;;;;29.38;16.33;;;4.90;99.90;;;;;;5063280;28;20035;-59
2022/01/14 09:12:23;;;;;;;37.90;18.15;;;4.90;99.90;;;;;;5065901;28;20182;-60
2022/01/14 09:14:49;;;;;;;;;;;4.90;99.90;;;;;;5064361;28;20123;-59
2022/01/14 09:17:16;;;;;;;38.17;18.38;;;4.90;99.90;;;;;;5061987;28;20006;-59
2022/01/14 09:19:42;;;;;;;35.95;18.10;;;4.90;99.90;;;;;;5064851;28;20477;-58
2022/01/14 09:22:07;;;;;;;36.15;17.42;;;5.00;99.90;;;;;;5065388;28;20038;-60
2022/01/14 09:24:34;;;;;;;36.25;18.10;;;5.00;99.90;;;;;;5064083;28;20033;-58
2022/01/14 09:26:59;;;;;;;38.83;19.75;;;5.10;99.90;;;;;;5063549;28;20029;-60
2022/01/14 09:29:25;;;;;;;37.90;18.67;;;5.10;99.90;;;;;;5064507;28;20093;-58
2022/01/14 09:31:50;;;;;;;38.22;17.13;;;5.10;99.90;;;;;;5062990;28;20086;-57
2022/01/14 09:34:16;;;;;;;35.97;18.02;;;5.20;99.90;;;;;;5064261;28;20098;-58
2022/01/14 09:36:41;;;;;;;31.05;15.50;;;5.20;99.90;;;;;;5064551;28;20490;-59
2022/01/14 09:39:08;;;;;;;34.60;17.33;;;5.20;99.90;;;;;;5061410;28;20111;-58
2022/01/14 09:41:33;;;;;;;33.38;18.15;;;5.20;99.90;;;;;;5063230;28;20366;-57
2022/01/14 09:44:01;;;;;;;37.72;20.23;;;5.20;99.90;;;;;;5065387;28;20050;-58
2022/01/14 09:46:27;;;;;;;38.80;16.95;;;5.30;99.90;;;;;;5064852;28;20039;-59
2022/01/14 09:48:52;;;;;;;35.25;17.40;;;5.30;99.90;;;;;;5061747;28;20021;-57
2022/01/14 09:51:19;;;;;;;31.95;17.63;;;5.30;99.90;;;;;;5063585;28;20474;-59
2022/01/14 09:53:45;;;;;;;32.30;16.02;;;5.30;99.90;;;;;;5063280;28;20020;-58
2022/01/14 09:56:17;;;;;;;37.00;18.52;;;5.40;99.90;;;;;;5061363;28;20059;-57
2022/01/14 09:58:47;;;;;;;33.67;16.92;;;5.40;99.90;;;;;;5065198;28;20292;-58
2022/01/14 10:01:16;;;;;;;29.73;16.63;;;5.40;99.90;;;;;;5062950;28;20384;-59
2022/01/14 10:04:01;;;;;;;33.30;16.83;;;5.50;99.90;;;;;;5061958;28;20036;-59
2022/01/14 10:06:40;;;;;;;37.17;17.85;;;5.50;99.90;;;;;;5061032;28;20036;-60
2022/01/14 10:09:09;;;;;;;33.80;18.95;;;5.50;99.90;;;;;;5063794;28;20037;-59
2022/01/14 10:11:35;;;;;;;37.45;17.83;;;5.50;99.90;;;;;;5061876;28;20033;-60
2022/01/14 10:14:15;;;;;;;38.00;18.80;;;5.50;99.90;;;;;;5062567;28;20025;-60
2022/01/14 10:16:41;;;;;;;38.22;18.77;;;5.60;99.90;;;;;;5064312;28;20032;-60
2022/01/14 10:19:21;;;;;;;39.45;20.05;;;5.60;99.90;;;;;;5062841;28;20099;-59
2022/01/14 10:21:46;;;;;;;37.40;19.98;;;5.60;99.90;;;;;;5064260;28;20028;-58
2022/01/14 10:24:13;;;;;;;37.40;17.77;;;5.70;99.90;;;;;;5064293;28;20509;-60
2022/01/14 10:26:56;;;;;;;37.10;18.75;;;5.70;99.90;;;;;;5062721;28;20048;-60
2022/01/14 10:29:37;;;;;;;33.20;17.70;;;5.70;99.90;;;;;;5064464;28;20024;-58
2022/01/14 10:32:04;;;;;;;31.35;16.45;;;5.70;99.90;;;;;;5078231;22;20562;-61
2022/01/14 10:34:30;;;;;;;36.13;20.02;;;5.80;99.90;;;;;;5045581;28;20044;-61
2022/01/14 10:37:08;;;;;;;38.75;19.13;;;5.80;99.90;;;;;;5045796;28;20434;-61
2022/01/14 10:39:33;;;;;;;37.20;18.38;;;5.80;99.90;;;;;;5050996;28;20085;-61
2022/01/14 10:41:59;;;;;;;32.38;18.50;;;5.90;99.90;;;;;;5043617;28;20486;-61
2022/01/14 10:44:27;;;;;;;39.00;18.98;;;5.90;99.90;;;;;;5043203;28;20083;-62
2022/01/14 10:47:18;;;;;;;31.58;18.10;;;5.90;99.90;;;;;;5042085;28;20032;-61
2022/01/14 10:49:48;;;;;;;43.72;22.80;;;5.90;99.90;;;;;;5043454;28;20029;-61
2022/01/14 10:52:17;;;;;;;37.88;19.13;;;5.90;99.90;;;;;;5046829;28;20028;-61
2022/01/14 10:54:48;;;;;;;40.60;19.83;;;5.90;99.90;;;;;;5047766;28;20021;-62
2022/01/14 10:57:24;;;;;;;35.13;17.45;;;5.90;99.90;;;;;;5047212;28;20158;-62
2022/01/14 10:59:52;;;;;;;40.90;20.10;;;5.90;99.90;;;;;;5047678;28;20029;-62
2022/01/14 11:02:31;;;;;;;39.45;20.08;;;5.90;99.90;;;;;;5044154;28;20106;-62
2022/01/14 11:05:05;;;;;;;41.50;20.88;;;5.90;99.90;;;;;;5047211;28;20032;-62
2022/01/14 11:07:31;;;;;;;42.72;18.85;;;5.90;99.90;;;;;;5048041;28;20374;-62
2022/01/14 11:09:58;;;;;;;38.10;19.63;;;5.90;99.90;;;;;;5043953;28;20036;-62
2022/01/14 11:12:24;;;;;;;39.83;19.77;;;5.90;99.90;;;;;;5049313;28;20170;-62
2022/01/14 11:14:50;;;;;;;53.53;22.25;;;5.90;99.90;;;;;;5049031;28;20035;-62
2022/01/14 11:17:16;;;;;;;40.85;19.88;;;6.00;99.90;;;;;;5049447;28;20033;-62
2022/01/14 11:19:45;;;;;;;41.03;20.48;;;6.00;99.90;;;;;;5048005;28;20158;-62
2022/01/14 11:24:55;;;;;;;36.63;20.80;;;6.10;99.90;;;;;;5046887;28;20082;-63
2022/01/14 11:27:21;;;;;;;;;;;6.10;99.90;;;;;;5044957;28;20615;-62
2022/01/14 11:29:48;;;;;;;40.58;20.00;;;6.10;99.90;;;;;;5044837;28;19908;-62
2022/01/14 11:32:14;;;;;;;40.72;19.85;;;6.10;99.90;;;;;;5045960;28;20029;-62
2022/01/14 11:34:43;;;;;;;;;;;6.20;99.90;;;;;;5048242;28;20187;-62
2022/01/14 11:37:13;;;;;;;36.97;19.50;;;6.10;99.90;;;;;;5046278;28;19936;-62
2022/01/14 11:39:52;;;;;;;43.75;17.95;;;6.20;99.90;;;;;;5047180;28;20044;-62
2022/01/14 11:42:18;;;;;;;38.67;19.23;;;6.20;99.90;;;;;;5043528;28;20048;-62
2022/01/14 11:44:55;;;;;;;48.15;18.92;;;6.20;99.90;;;;;;5046283;28;20021;-62
2022/01/14 11:47:24;;;;;;;35.95;18.63;;;6.20;99.90;;;;;;5047376;28;20386;-62
2022/01/14 11:49:50;;;;;;;41.85;20.55;;;6.20;99.90;;;;;;5047475;28;20021;-62
2022/01/14 11:52:36;;;;;;;36.33;19.73;;;6.20;99.90;;;;;;5046127;28;20589;-62
2022/01/14 11:55:02;;;;;;;43.88;20.25;;;6.20;99.90;;;;;;5044355;28;20041;-62
2022/01/14 11:57:51;;;;;;;43.63;20.25;;;6.20;99.90;;;;;;5043148;28;20086;-65
2022/01/14 12:00:28;;;;;;;36.42;19.38;;;6.20;99.90;;;;;;5043402;28;20025;-62
2022/01/14 12:02:54;;;;;;;;;;;6.20;99.90;;;;;;5046088;28;20112;-62
2022/01/14 12:05:25;;;;;;;36.60;18.65;;;6.20;99.90;;;;;;5046522;28;19909;-62
2022/01/14 12:08:07;;;;;;;40.35;21.17;;;6.20;99.90;;;;;;5042986;28;20029;-62
2022/01/14 12:10:35;;;;;;;39.90;18.70;;;6.30;99.90;;;;;;5044684;28;20025;-62
2022/01/14 12:13:40;;;;;;;36.60;17.65;;;6.30;99.90;;;;;;5044631;28;20036;-61
2022/01/14 12:16:10;;;;;;;46.58;20.80;;;6.30;99.90;;;;;;5044144;28;20704;-63
2022/01/14 12:19:00;;;;;;;40.30;20.48;;;6.30;99.90;;;;;;5046454;28;20041;-62
2022/01/14 12:21:44;;;;;;;39.55;18.17;;;6.30;99.90;;;;;;5045383;28;20112;-62
2022/01/14 12:24:18;;;;;;;36.95;17.85;;;6.30;99.90;;;;;;5045892;28;20052;-62
2022/01/14 12:27:10;;;;;;;37.42;19.00;;;6.30;99.90;;;;;;5046308;28;20439;-62
2022/01/14 12:29:48;;;;;;;43.00;19.88;;;6.30;99.90;;;;;;5043473;28;20029;-62
2022/01/14 12:32:31;;;;;;;49.20;19.75;;;6.30;99.90;;;;;;5045664;28;20375;-62
2022/01/14 12:34:56;;;;;;;37.40;17.83;;;6.30;99.90;;;;;;5044889;28;20032;-62
2022/01/14 12:37:26;;;;;;;37.30;17.58;;;6.30;99.90;;;;;;5044798;28;20025;-62
2022/01/14 12:39:52;;;;;;;44.90;17.02;;;6.30;99.90;;;;;;5045044;28;20072;-62
2022/01/14 12:42:20;;;;;;;38.65;20.40;;;6.30;99.90;;;;;;5046442;28;20386;-62
2022/01/14 12:44:47;;;;;;;38.90;19.00;;;6.30;99.90;;;;;;5045812;28;20079;-62
2022/01/14 12:47:20;;;;;;;47.45;19.92;;;6.30;99.90;;;;;;5045435;28;20528;-62
2022/01/14 12:49:47;;;;;;;46.30;19.25;;;6.30;99.90;;;;;;5045275;28;20028;-62
2022/01/14 12:52:16;;;;;;;34.33;19.30;;;6.30;99.90;;;;;;5044885;28;20116;-62
2022/01/14 12:54:44;;;;;;;43.33;20.02;;;6.30;99.90;;;;;;5045682;28;20448;-63
2022/01/14 12:57:14;;;;;;;34.33;18.90;;;6.30;99.90;;;;;;5043961;28;20482;-62
2022/01/14 12:59:42;;;;;;;35.45;18.67;;;6.30;99.90;;;;;;5042474;28;20040;-62
2022/01/14 13:02:08;;;;;;;37.33;18.10;;;6.30;99.90;;;;;;5044088;28;20091;-62
2022/01/14 13:04:33;;;;;;;47.25;20.58;;;6.30;99.90;;;;;;5046969;28;20025;-63
2022/01/14 13:07:02;;;;;;;34.17;16.92;;;6.20;99.90;;;;;;5045646;28;20032;-62
2022/01/14 13:09:31;;;;;;;36.47;18.52;;;6.20;99.90;;;;;;5044763;28;20049;-62
2022/01/14 13:12:06;;;;;;;37.42;19.25;;;6.20;99.90;;;;;;5045285;28;20094;-62
2022/01/14 13:14:44;;;;;;;36.53;18.35;;;6.20;99.90;;;;;;5045427;28;20385;-62
2022/01/14 13:17:16;;;;;;;30.35;17.38;;;6.20;99.90;;;;;;5045718;28;20025;-62
2022/01/14 13:19:44;;;;;;;40.55;19.42;;;6.30;99.90;;;;;;5043690;28;20561;-62
2022/01/14 13:22:13;;;;;;;38.05;17.83;;;6.30;99.90;;;;;;5046117;28;20104;-62
2022/01/14 13:24:49;;;;;;;36.33;18.48;;;6.20;99.90;;;;;;5046220;28;20029;-62
2022/01/14 13:27:27;;;;;;;32.27;15.00;;;6.30;99.90;;;;;;5045473;28;20040;-62
2022/01/14 13:30:35;;;;;;;36.05;17.13;;;6.30;99.90;;;;;;5043658;28;20550;-63